Terminal Aerodrome Forecast
Issued by NWS Cleveland, OH

Home | Current Version | Previous Version | Graphics & Text | Print | Product List | Glossary On
Versions: 1 2 3 4 5 6 7 8 9 10 11 12 13 14 15 16
008
FTUS41 KCLE 231730
TAFYNG
TAF
KYNG 231730Z 2318/2418 31008KT P6SM SCT150
     FM240000 01007KT P6SM SCT020 BKN050
     FM240300 01007KT P6SM BKN010
     FM241400 04009KT P6SM BKN020=

USA.gov is the U.S. government's official web portal to all federal, state and local government web resources and services.